sensor_id;sensor_type;location;lat;lon;timestamp;pressure;altitude;pressure_sealevel;temperature;humidity
13800;BME280;6971;50.028;9.258;2022-08-02T00:04:07;99627.69;;;17.74;100.00
13800;BME280;6971;50.028;9.258;2022-08-02T00:09:09;99623.69;;;17.69;100.00
13800;BME280;6971;50.028;9.258;2022-08-02T00:14:10;99631.72;;;17.57;100.00
13800;BME280;6971;50.028;9.258;2022-08-02T00:19:12;99633.66;;;17.55;100.00
13800;BME280;6971;50.028;9.258;2022-08-02T00:24:12;99633.06;;;17.29;100.00
13800;BME280;6971;50.028;9.258;2022-08-02T00:29:13;99637.78;;;17.25;100.00
13800;BME280;6971;50.028;9.258;2022-08-02T00:34:14;99639.22;;;17.29;100.00
13800;BME280;6971;50.028;9.258;2022-08-02T00:39:16;99630.78;;;17.35;100.00
13800;BME280;6971;50.028;9.258;2022-08-02T00:44:18;99637.06;;;17.23;100.00
13800;BME280;6971;50.028;9.258;2022-08-02T00:49:19;99632.34;;;17.15;100.00
13800;BME280;6971;50.028;9.258;2022-08-02T00:54:20;99634.97;;;17.04;100.00
13800;BME280;6971;50.028;9.258;2022-08-02T00:59:21;99635.78;;;16.93;100.00
13800;BME280;6971;50.028;9.258;2022-08-02T01:04:35;99628.16;;;16.77;100.00
13800;BME280;6971;50.028;9.258;2022-08-02T01:09:36;99633.09;;;16.70;100.00
13800;BME280;6971;50.028;9.258;2022-08-02T01:14:41;99629.19;;;16.63;100.00
13800;BME280;6971;50.028;9.258;2022-08-02T01:30:16;99637.63;;;16.45;100.00
13800;BME280;6971;50.028;9.258;2022-08-02T01:35:26;99642.81;;;16.35;100.00
13800;BME280;6971;50.028;9.258;2022-08-02T01:40:30;99653.50;;;16.22;100.00
13800;BME280;6971;50.028;9.258;2022-08-02T01:45:36;99658.19;;;16.18;100.00
13800;BME280;6971;50.028;9.258;2022-08-02T01:50:40;99654.38;;;16.34;100.00
13800;BME280;6971;50.028;9.258;2022-08-02T01:55:43;99650.41;;;16.40;100.00
13800;BME280;6971;50.028;9.258;2022-08-02T02:00:49;99645.84;;;16.42;100.00
13800;BME280;6971;50.028;9.258;2022-08-02T02:05:55;99642.72;;;16.48;100.00
13800;BME280;6971;50.028;9.258;2022-08-02T02:10:58;99650.22;;;16.54;100.00
13800;BME280;6971;50.028;9.258;2022-08-02T02:16:02;99652.66;;;16.57;100.00
13800;BME280;6971;50.028;9.258;2022-08-02T02:21:05;99639.34;;;16.46;100.00
13800;BME280;6971;50.028;9.258;2022-08-02T02:26:06;99637.72;;;16.43;100.00
13800;BME280;6971;50.028;9.258;2022-08-02T02:31:13;99636.94;;;16.30;100.00
13800;BME280;6971;50.028;9.258;2022-08-02T02:36:19;99635.63;;;16.24;100.00
13800;BME280;6971;50.028;9.258;2022-08-02T02:41:22;99630.72;;;16.07;100.00
13800;BME280;6971;50.028;9.258;2022-08-02T02:46:25;99632.97;;;16.00;100.00
13800;BME280;6971;50.028;9.258;2022-08-02T02:51:27;99635.41;;;15.90;100.00
13800;BME280;6971;50.028;9.258;2022-08-02T02:56:29;99646.84;;;15.66;100.00
13800;BME280;6971;50.028;9.258;2022-08-02T03:01:31;99639.78;;;15.53;100.00
13800;BME280;6971;50.028;9.258;2022-08-02T03:06:37;99641.06;;;15.48;100.00
13800;BME280;6971;50.028;9.258;2022-08-02T03:11:39;99636.06;;;15.43;100.00
13800;BME280;6971;50.028;9.258;2022-08-02T03:16:46;99639.19;;;15.37;100.00
13800;BME280;6971;50.028;9.258;2022-08-02T03:21:49;99644.19;;;15.29;100.00
13800;BME280;6971;50.028;9.258;2022-08-02T03:26:55;99645.56;;;15.21;100.00
13800;BME280;6971;50.028;9.258;2022-08-02T03:31:56;99654.47;;;15.20;100.00
13800;BME280;6971;50.028;9.258;2022-08-02T03:36:58;99654.81;;;15.16;100.00
13800;BME280;6971;50.028;9.258;2022-08-02T03:42:00;99658.09;;;15.19;100.00
13800;BME280;6971;50.028;9.258;2022-08-02T03:47:01;99650.44;;;15.14;100.00
13800;BME280;6971;50.028;9.258;2022-08-02T03:52:03;99643.03;;;15.07;100.00
13800;BME280;6971;50.028;9.258;2022-08-02T03:57:07;99648.44;;;15.05;100.00
13800;BME280;6971;50.028;9.258;2022-08-02T04:02:10;99648.84;;;14.86;100.00
13800;BME280;6971;50.028;9.258;2022-08-02T04:07:11;99650.25;;;14.79;100.00
13800;BME280;6971;50.028;9.258;2022-08-02T04:12:12;99658.19;;;14.79;100.00
13800;BME280;6971;50.028;9.258;2022-08-02T04:17:24;99664.63;;;14.74;100.00
13800;BME280;6971;50.028;9.258;2022-08-02T04:22:36;99659.63;;;14.70;100.00
13800;BME280;6971;50.028;9.258;2022-08-02T04:27:39;99656.53;;;14.63;100.00
13800;BME280;6971;50.028;9.258;2022-08-02T04:32:42;99659.09;;;14.65;100.00
13800;BME280;6971;50.028;9.258;2022-08-02T04:37:43;99658.28;;;14.64;100.00
13800;BME280;6971;50.028;9.258;2022-08-02T04:42:45;99666.41;;;14.61;100.00
13800;BME280;6971;50.028;9.258;2022-08-02T04:47:46;99669.72;;;14.65;100.00
13800;BME280;6971;50.028;9.258;2022-08-02T04:52:47;99671.28;;;14.67;100.00
13800;BME280;6971;50.028;9.258;2022-08-02T04:57:48;99673.41;;;14.62;100.00
13800;BME280;6971;50.028;9.258;2022-08-02T05:02:56;99674.28;;;14.62;100.00
13800;BME280;6971;50.028;9.258;2022-08-02T05:07:57;99686.69;;;14.62;100.00
13800;BME280;6971;50.028;9.258;2022-08-02T05:12:59;99688.19;;;14.66;100.00
13800;BME280;6971;50.028;9.258;2022-08-02T05:18:02;99685.09;;;14.72;100.00
13800;BME280;6971;50.028;9.258;2022-08-02T05:23:04;99691.19;;;14.87;100.00
13800;BME280;6971;50.028;9.258;2022-08-02T05:28:05;99696.75;;;14.97;100.00
13800;BME280;6971;50.028;9.258;2022-08-02T05:33:15;99691.31;;;15.12;100.00
13800;BME280;6971;50.028;9.258;2022-08-02T05:38:16;99685.69;;;15.30;100.00
13800;BME280;6971;50.028;9.258;2022-08-02T05:43:17;99684.41;;;15.35;100.00
13800;BME280;6971;50.028;9.258;2022-08-02T05:48:18;99691.94;;;15.55;100.00
13800;BME280;6971;50.028;9.258;2022-08-02T05:53:44;99693.53;;;15.57;100.00
13800;BME280;6971;50.028;9.258;2022-08-02T06:04:05;99701.56;;;15.82;100.00
13800;BME280;6971;50.028;9.258;2022-08-02T06:09:10;99705.81;;;15.84;100.00
13800;BME280;6971;50.028;9.258;2022-08-02T06:14:15;99701.66;;;15.93;100.00
13800;BME280;6971;50.028;9.258;2022-08-02T06:19:17;99699.28;;;16.01;100.00
13800;BME280;6971;50.028;9.258;2022-08-02T06:24:19;99692.78;;;16.05;100.00
13800;BME280;6971;50.028;9.258;2022-08-02T06:29:22;99695.19;;;16.22;100.00
13800;BME280;6971;50.028;9.258;2022-08-02T06:34:24;99706.47;;;16.37;100.00
13800;BME280;6971;50.028;9.258;2022-08-02T06:39:43;99711.28;;;16.56;100.00
13800;BME280;6971;50.028;9.258;2022-08-02T06:44:47;99703.53;;;16.77;100.00
13800;BME280;6971;50.028;9.258;2022-08-02T06:49:48;99705.38;;;17.00;100.00
13800;BME280;6971;50.028;9.258;2022-08-02T06:54:49;99700.38;;;17.42;100.00
13800;BME280;6971;50.028;9.258;2022-08-02T06:59:50;99710.19;;;17.53;100.00
13800;BME280;6971;50.028;9.258;2022-08-02T07:04:52;99711.50;;;17.70;100.00
13800;BME280;6971;50.028;9.258;2022-08-02T07:09:53;99701.69;;;17.94;100.00
13800;BME280;6971;50.028;9.258;2022-08-02T07:14:54;99712.91;;;18.20;100.00
13800;BME280;6971;50.028;9.258;2022-08-02T07:19:56;99708.78;;;18.27;100.00
13800;BME280;6971;50.028;9.258;2022-08-02T07:25:11;99706.91;;;18.39;100.00
13800;BME280;6971;50.028;9.258;2022-08-02T07:30:13;99710.72;;;18.58;100.00
13800;BME280;6971;50.028;9.258;2022-08-02T07:35:14;99707.34;;;18.77;100.00
13800;BME280;6971;50.028;9.258;2022-08-02T07:40:16;99702.28;;;18.96;98.17
13800;BME280;6971;50.028;9.258;2022-08-02T07:45:18;99689.50;;;19.21;83.35
13800;BME280;6971;50.028;9.258;2022-08-02T07:50:27;99707.56;;;19.28;86.86
13800;BME280;6971;50.028;9.258;2022-08-02T07:55:28;99692.00;;;19.75;77.48
13800;BME280;6971;50.028;9.258;2022-08-02T08:00:29;99695.78;;;20.92;73.64
13800;BME280;6971;50.028;9.258;2022-08-02T08:05:30;99705.59;;;22.34;64.15
13800;BME280;6971;50.028;9.258;2022-08-02T08:10:31;99701.69;;;22.46;65.10
13800;BME280;6971;50.028;9.258;2022-08-02T08:15:33;99700.88;;;23.08;59.07
13800;BME280;6971;50.028;9.258;2022-08-02T08:20:33;99705.06;;;23.38;55.94
13800;BME280;6971;50.028;9.258;2022-08-02T08:25:34;99704.44;;;24.97;50.55
13800;BME280;6971;50.028;9.258;2022-08-02T08:30:35;99695.47;;;25.21;46.11
13800;BME280;6971;50.028;9.258;2022-08-02T08:35:35;99707.28;;;25.20;46.54
13800;BME280;6971;50.028;9.258;2022-08-02T08:40:36;99705.75;;;26.38;44.65
13800;BME280;6971;50.028;9.258;2022-08-02T08:45:47;99706.03;;;26.19;44.12
13800;BME280;6971;50.028;9.258;2022-08-02T08:51:10;99708.44;;;25.83;42.83
13800;BME280;6971;50.028;9.258;2022-08-02T08:56:14;99705.81;;;26.76;40.84
13800;BME280;6971;50.028;9.258;2022-08-02T09:01:15;99707.75;;;26.44;42.27
13800;BME280;6971;50.028;9.258;2022-08-02T09:06:17;99705.34;;;26.49;41.14
13800;BME280;6971;50.028;9.258;2022-08-02T09:11:22;99702.06;;;27.01;40.40
13800;BME280;6971;50.028;9.258;2022-08-02T09:21:36;99705.63;;;27.61;40.36
13800;BME280;6971;50.028;9.258;2022-08-02T09:26:38;99712.41;;;27.57;39.89
13800;BME280;6971;50.028;9.258;2022-08-02T09:31:38;99704.88;;;27.83;38.67
13800;BME280;6971;50.028;9.258;2022-08-02T09:36:53;99706.00;;;28.10;37.26
13800;BME280;6971;50.028;9.258;2022-08-02T09:42:06;99709.88;;;28.38;37.21
13800;BME280;6971;50.028;9.258;2022-08-02T09:47:13;99709.22;;;28.36;36.61
13800;BME280;6971;50.028;9.258;2022-08-02T09:52:21;99704.00;;;29.07;35.43
13800;BME280;6971;50.028;9.258;2022-08-02T09:57:26;99700.94;;;27.85;38.07
13800;BME280;6971;50.028;9.258;2022-08-02T10:02:27;99696.63;;;29.29;34.88
13800;BME280;6971;50.028;9.258;2022-08-02T10:07:28;99691.59;;;29.68;33.61
13800;BME280;6971;50.028;9.258;2022-08-02T10:12:30;99694.56;;;29.31;34.67
13800;BME280;6971;50.028;9.258;2022-08-02T10:17:32;99693.78;;;28.36;35.50
13800;BME280;6971;50.028;9.258;2022-08-02T10:22:34;99683.06;;;28.72;35.09
13800;BME280;6971;50.028;9.258;2022-08-02T10:27:36;99688.31;;;28.30;36.69
13800;BME280;6971;50.028;9.258;2022-08-02T10:32:48;99689.22;;;28.37;36.66
13800;BME280;6971;50.028;9.258;2022-08-02T10:37:53;99687.03;;;28.47;36.41
13800;BME280;6971;50.028;9.258;2022-08-02T10:42:55;99670.63;;;28.84;35.78
13800;BME280;6971;50.028;9.258;2022-08-02T10:48:09;99664.28;;;28.70;35.47
13800;BME280;6971;50.028;9.258;2022-08-02T10:53:32;99653.88;;;28.96;34.64
13800;BME280;6971;50.028;9.258;2022-08-02T10:58:33;99653.44;;;28.70;35.88
13800;BME280;6971;50.028;9.258;2022-08-02T11:03:35;99651.53;;;29.28;34.72
13800;BME280;6971;50.028;9.258;2022-08-02T11:08:36;99651.75;;;28.69;34.74
13800;BME280;6971;50.028;9.258;2022-08-02T11:14:05;99639.03;;;29.82;33.63
13800;BME280;6971;50.028;9.258;2022-08-02T11:19:09;99636.28;;;29.69;33.91
13800;BME280;6971;50.028;9.258;2022-08-02T11:24:27;99636.53;;;29.32;33.64
13800;BME280;6971;50.028;9.258;2022-08-02T11:29:41;99638.56;;;29.23;33.63
13800;BME280;6971;50.028;9.258;2022-08-02T11:34:46;99635.75;;;29.45;33.87
13800;BME280;6971;50.028;9.258;2022-08-02T11:39:50;99628.38;;;29.32;32.98
13800;BME280;6971;50.028;9.258;2022-08-02T11:44:52;99619.06;;;29.48;32.09
13800;BME280;6971;50.028;9.258;2022-08-02T11:50:06;99613.63;;;29.48;31.85
13800;BME280;6971;50.028;9.258;2022-08-02T11:55:09;99622.16;;;29.45;31.94
13800;BME280;6971;50.028;9.258;2022-08-02T12:00:15;99612.03;;;29.54;31.42
13800;BME280;6971;50.028;9.258;2022-08-02T12:05:31;99618.03;;;30.39;30.71
13800;BME280;6971;50.028;9.258;2022-08-02T12:10:31;99617.13;;;29.84;30.46
13800;BME280;6971;50.028;9.258;2022-08-02T12:20:35;99619.25;;;31.56;27.97
13800;BME280;6971;50.028;9.258;2022-08-02T12:25:37;99621.75;;;30.04;30.33
13800;BME280;6971;50.028;9.258;2022-08-02T12:30:55;99617.19;;;29.00;31.24
13800;BME280;6971;50.028;9.258;2022-08-02T12:35:57;99617.16;;;30.04;30.09
13800;BME280;6971;50.028;9.258;2022-08-02T12:41:11;99621.72;;;29.97;29.81
13800;BME280;6971;50.028;9.258;2022-08-02T12:46:17;99609.84;;;29.42;30.60
13800;BME280;6971;50.028;9.258;2022-08-02T12:51:29;99603.25;;;29.65;30.38
13800;BME280;6971;50.028;9.258;2022-08-02T12:56:31;99590.22;;;29.34;31.26
13800;BME280;6971;50.028;9.258;2022-08-02T13:01:33;99593.97;;;29.46;31.12
13800;BME280;6971;50.028;9.258;2022-08-02T13:06:34;99589.66;;;29.10;30.57
13800;BME280;6971;50.028;9.258;2022-08-02T13:11:35;99584.59;;;28.36;32.25
13800;BME280;6971;50.028;9.258;2022-08-02T13:16:37;99584.91;;;29.18;31.00
13800;BME280;6971;50.028;9.258;2022-08-02T13:21:39;99590.03;;;29.42;31.03
13800;BME280;6971;50.028;9.258;2022-08-02T13:26:41;99573.31;;;28.96;31.54
13800;BME280;6971;50.028;9.258;2022-08-02T13:31:43;99579.69;;;29.73;30.68
13800;BME280;6971;50.028;9.258;2022-08-02T13:36:43;99571.53;;;29.59;31.38
13800;BME280;6971;50.028;9.258;2022-08-02T13:41:44;99572.31;;;29.04;31.47
13800;BME280;6971;50.028;9.258;2022-08-02T13:47:01;99563.91;;;28.92;31.81
13800;BME280;6971;50.028;9.258;2022-08-02T13:52:02;99560.81;;;28.95;31.52
13800;BME280;6971;50.028;9.258;2022-08-02T13:57:04;99559.00;;;28.17;33.37
13800;BME280;6971;50.028;9.258;2022-08-02T14:02:05;99554.16;;;28.69;32.70
13800;BME280;6971;50.028;9.258;2022-08-02T14:07:06;99543.22;;;29.26;31.97
13800;BME280;6971;50.028;9.258;2022-08-02T14:12:08;99540.94;;;29.43;31.34
13800;BME280;6971;50.028;9.258;2022-08-02T14:17:09;99534.94;;;28.92;31.90
13800;BME280;6971;50.028;9.258;2022-08-02T14:22:11;99531.03;;;28.73;32.33
13800;BME280;6971;50.028;9.258;2022-08-02T14:27:11;99530.25;;;29.22;32.31
13800;BME280;6971;50.028;9.258;2022-08-02T14:32:12;99519.66;;;29.40;31.29
13800;BME280;6971;50.028;9.258;2022-08-02T14:37:16;99527.19;;;29.45;32.19
13800;BME280;6971;50.028;9.258;2022-08-02T14:42:17;99509.97;;;29.93;31.22
13800;BME280;6971;50.028;9.258;2022-08-02T14:47:18;99506.81;;;29.90;30.36
13800;BME280;6971;50.028;9.258;2022-08-02T14:52:19;99508.44;;;29.57;30.07
13800;BME280;6971;50.028;9.258;2022-08-02T14:57:20;99501.38;;;29.90;30.42
13800;BME280;6971;50.028;9.258;2022-08-02T15:02:37;99504.25;;;29.54;30.95
13800;BME280;6971;50.028;9.258;2022-08-02T15:07:38;99492.41;;;29.76;30.47
13800;BME280;6971;50.028;9.258;2022-08-02T15:12:38;99498.72;;;29.21;31.62
13800;BME280;6971;50.028;9.258;2022-08-02T15:17:39;99496.06;;;29.48;31.55
13800;BME280;6971;50.028;9.258;2022-08-02T15:22:40;99499.72;;;28.99;30.49
13800;BME280;6971;50.028;9.258;2022-08-02T15:27:41;99493.78;;;29.31;31.44
13800;BME280;6971;50.028;9.258;2022-08-02T15:32:42;99487.91;;;29.27;31.79
13800;BME280;6971;50.028;9.258;2022-08-02T15:37:43;99489.69;;;29.62;32.12
13800;BME280;6971;50.028;9.258;2022-08-02T15:42:43;99494.34;;;29.19;31.79
13800;BME280;6971;50.028;9.258;2022-08-02T15:47:44;99494.66;;;28.89;32.55
13800;BME280;6971;50.028;9.258;2022-08-02T15:52:46;99484.72;;;28.68;32.01
13800;BME280;6971;50.028;9.258;2022-08-02T15:57:46;99488.53;;;28.74;32.29
13800;BME280;6971;50.028;9.258;2022-08-02T16:02:47;99486.03;;;28.15;32.78
13800;BME280;6971;50.028;9.258;2022-08-02T16:07:48;99480.59;;;28.72;32.46
13800;BME280;6971;50.028;9.258;2022-08-02T16:13:05;99480.22;;;28.40;32.18
13800;BME280;6971;50.028;9.258;2022-08-02T16:18:25;99476.38;;;28.63;33.17
13800;BME280;6971;50.028;9.258;2022-08-02T16:23:26;99477.19;;;28.63;33.38
13800;BME280;6971;50.028;9.258;2022-08-02T16:28:27;99473.78;;;28.48;33.77
13800;BME280;6971;50.028;9.258;2022-08-02T16:33:28;99475.19;;;28.37;34.16
13800;BME280;6971;50.028;9.258;2022-08-02T16:38:29;99467.44;;;28.34;32.63
13800;BME280;6971;50.028;9.258;2022-08-02T16:43:30;99477.88;;;28.37;34.70
13800;BME280;6971;50.028;9.258;2022-08-02T16:48:32;99464.72;;;28.34;33.93
13800;BME280;6971;50.028;9.258;2022-08-02T16:53:33;99457.72;;;28.18;32.22
13800;BME280;6971;50.028;9.258;2022-08-02T16:58:34;99444.34;;;28.09;32.25
13800;BME280;6971;50.028;9.258;2022-08-02T17:03:36;99452.66;;;28.08;31.41
13800;BME280;6971;50.028;9.258;2022-08-02T17:08:37;99449.59;;;28.18;32.36
13800;BME280;6971;50.028;9.258;2022-08-02T17:13:50;99455.72;;;27.98;31.34
13800;BME280;6971;50.028;9.258;2022-08-02T17:18:51;99460.44;;;27.89;32.10
13800;BME280;6971;50.028;9.258;2022-08-02T17:23:52;99448.13;;;27.86;32.15
13800;BME280;6971;50.028;9.258;2022-08-02T17:28:54;99450.91;;;27.93;32.78
13800;BME280;6971;50.028;9.258;2022-08-02T17:33:55;99462.13;;;27.68;33.71
13800;BME280;6971;50.028;9.258;2022-08-02T17:38:56;99454.00;;;27.46;35.57
13800;BME280;6971;50.028;9.258;2022-08-02T17:44:10;99454.25;;;26.78;41.77
13800;BME280;6971;50.028;9.258;2022-08-02T17:49:10;99461.16;;;26.65;42.30
13800;BME280;6971;50.028;9.258;2022-08-02T17:54:20;99458.75;;;26.55;43.23
13800;BME280;6971;50.028;9.258;2022-08-02T17:59:23;99459.59;;;26.26;44.15
13800;BME280;6971;50.028;9.258;2022-08-02T18:04:26;99460.31;;;25.81;46.61
13800;BME280;6971;50.028;9.258;2022-08-02T18:09:28;99461.75;;;25.22;47.53
13800;BME280;6971;50.028;9.258;2022-08-02T18:14:29;99458.91;;;24.75;50.29
13800;BME280;6971;50.028;9.258;2022-08-02T18:19:30;99459.22;;;24.32;51.51
13800;BME280;6971;50.028;9.258;2022-08-02T18:24:31;99463.16;;;23.96;52.62
13800;BME280;6971;50.028;9.258;2022-08-02T18:29:33;99452.69;;;23.59;54.57
13800;BME280;6971;50.028;9.258;2022-08-02T18:34:34;99450.63;;;23.12;56.09
13800;BME280;6971;50.028;9.258;2022-08-02T18:39:49;99455.16;;;22.68;57.38
13800;BME280;6971;50.028;9.258;2022-08-02T18:44:49;99458.16;;;22.65;58.50
13800;BME280;6971;50.028;9.258;2022-08-02T18:49:50;99458.69;;;22.42;59.24
13800;BME280;6971;50.028;9.258;2022-08-02T18:54:51;99463.91;;;22.17;59.87
13800;BME280;6971;50.028;9.258;2022-08-02T18:59:52;99472.66;;;21.74;60.65
13800;BME280;6971;50.028;9.258;2022-08-02T19:04:52;99469.03;;;21.47;60.17
13800;BME280;6971;50.028;9.258;2022-08-02T19:09:53;99474.63;;;21.36;61.41
13800;BME280;6971;50.028;9.258;2022-08-02T19:14:54;99467.59;;;21.07;61.83
13800;BME280;6971;50.028;9.258;2022-08-02T19:19:55;99478.66;;;20.66;62.37
13800;BME280;6971;50.028;9.258;2022-08-02T19:24:56;99478.16;;;20.52;63.81
13800;BME280;6971;50.028;9.258;2022-08-02T19:29:57;99470.44;;;20.39;64.88
13800;BME280;6971;50.028;9.258;2022-08-02T19:34:58;99465.28;;;20.08;65.07
13800;BME280;6971;50.028;9.258;2022-08-02T19:40:04;99462.50;;;19.80;65.53
13800;BME280;6971;50.028;9.258;2022-08-02T19:45:05;99464.06;;;19.53;65.29
13800;BME280;6971;50.028;9.258;2022-08-02T19:50:11;99477.38;;;19.33;66.26
13800;BME280;6971;50.028;9.258;2022-08-02T19:55:14;99478.34;;;19.22;66.77
13800;BME280;6971;50.028;9.258;2022-08-02T20:00:15;99481.16;;;19.11;67.77
13800;BME280;6971;50.028;9.258;2022-08-02T20:05:16;99475.50;;;19.04;68.26
13800;BME280;6971;50.028;9.258;2022-08-02T20:10:16;99482.75;;;18.51;69.55
13800;BME280;6971;50.028;9.258;2022-08-02T20:15:17;99478.16;;;18.32;70.35
13800;BME280;6971;50.028;9.258;2022-08-02T20:20:18;99474.66;;;18.10;71.18
13800;BME280;6971;50.028;9.258;2022-08-02T20:25:19;99479.00;;;17.78;71.35
13800;BME280;6971;50.028;9.258;2022-08-02T20:30:20;99470.31;;;17.76;73.15
13800;BME280;6971;50.028;9.258;2022-08-02T20:35:21;99468.91;;;17.60;74.21
13800;BME280;6971;50.028;9.258;2022-08-02T20:40:23;99461.00;;;17.38;73.95
13800;BME280;6971;50.028;9.258;2022-08-02T20:45:24;99466.41;;;17.26;74.66
13800;BME280;6971;50.028;9.258;2022-08-02T20:50:25;99474.91;;;17.08;76.47
13800;BME280;6971;50.028;9.258;2022-08-02T20:55:47;99471.25;;;16.98;77.46
13800;BME280;6971;50.028;9.258;2022-08-02T21:00:48;99474.31;;;16.70;77.60
13800;BME280;6971;50.028;9.258;2022-08-02T21:05:50;99470.19;;;16.66;78.08
13800;BME280;6971;50.028;9.258;2022-08-02T21:10:51;99477.56;;;16.63;79.52
13800;BME280;6971;50.028;9.258;2022-08-02T21:16:06;99467.28;;;16.47;80.37
13800;BME280;6971;50.028;9.258;2022-08-02T21:21:08;99482.34;;;16.23;80.57
13800;BME280;6971;50.028;9.258;2022-08-02T21:26:09;99482.34;;;16.23;80.90
13800;BME280;6971;50.028;9.258;2022-08-02T21:31:12;99476.69;;;16.28;80.54
13800;BME280;6971;50.028;9.258;2022-08-02T21:36:14;99479.06;;;16.08;81.30
13800;BME280;6971;50.028;9.258;2022-08-02T21:41:15;99478.22;;;16.08;82.34
13800;BME280;6971;50.028;9.258;2022-08-02T21:46:17;99475.09;;;16.02;83.04
13800;BME280;6971;50.028;9.258;2022-08-02T21:51:18;99472.78;;;15.73;83.72
13800;BME280;6971;50.028;9.258;2022-08-02T21:56:19;99475.94;;;15.78;84.65
13800;BME280;6971;50.028;9.258;2022-08-02T22:01:20;99482.22;;;15.77;84.72
13800;BME280;6971;50.028;9.258;2022-08-02T22:06:21;99493.34;;;15.58;85.42
13800;BME280;6971;50.028;9.258;2022-08-02T22:11:22;99490.94;;;15.55;86.93
13800;BME280;6971;50.028;9.258;2022-08-02T22:16:23;99498.06;;;15.55;86.64
13800;BME280;6971;50.028;9.258;2022-08-02T22:21:25;99500.44;;;15.46;87.28
13800;BME280;6971;50.028;9.258;2022-08-02T22:26:26;99501.09;;;15.37;88.69
13800;BME280;6971;50.028;9.258;2022-08-02T22:31:39;99499.22;;;15.26;90.33
13800;BME280;6971;50.028;9.258;2022-08-02T22:36:41;99510.16;;;15.21;91.46
13800;BME280;6971;50.028;9.258;2022-08-02T22:41:43;99507.91;;;15.28;90.26
13800;BME280;6971;50.028;9.258;2022-08-02T22:46:44;99512.09;;;15.19;91.34
13800;BME280;6971;50.028;9.258;2022-08-02T22:51:45;99514.97;;;15.16;92.09
13800;BME280;6971;50.028;9.258;2022-08-02T22:56:46;99512.97;;;15.07;93.09
13800;BME280;6971;50.028;9.258;2022-08-02T23:01:46;99501.66;;;14.92;95.50
13800;BME280;6971;50.028;9.258;2022-08-02T23:06:47;99501.59;;;14.80;96.56
13800;BME280;6971;50.028;9.258;2022-08-02T23:11:49;99490.38;;;14.75;96.98
13800;BME280;6971;50.028;9.258;2022-08-02T23:16:51;99500.81;;;14.65;97.66
13800;BME280;6971;50.028;9.258;2022-08-02T23:22:10;99500.16;;;14.61;98.21
13800;BME280;6971;50.028;9.258;2022-08-02T23:27:12;99504.72;;;14.72;97.98
13800;BME280;6971;50.028;9.258;2022-08-02T23:32:13;99503.16;;;14.57;99.30
13800;BME280;6971;50.028;9.258;2022-08-02T23:37:14;99510.59;;;14.52;100.00
13800;BME280;6971;50.028;9.258;2022-08-02T23:42:15;99500.38;;;14.45;100.00
13800;BME280;6971;50.028;9.258;2022-08-02T23:47:17;99510.34;;;14.55;99.69
13800;BME280;6971;50.028;9.258;2022-08-02T23:52:18;99506.97;;;14.40;100.00
13800;BME280;6971;50.028;9.258;2022-08-02T23:57:20;99510.56;;;14.39;100.00
